sensor_id;sensor_type;location;lat;lon;timestamp;pressure;altitude;pressure_sealevel;temperature;humidity
59419;BME280;45224;50.904;6.038;2023-02-22T00:00:36;99690.47;;;5.93;100.00
59419;BME280;45224;50.904;6.038;2023-02-22T00:02:13;99687.00;;;5.91;100.00
59419;BME280;45224;50.904;6.038;2023-02-22T00:03:56;99679.97;;;5.81;100.00
59419;BME280;45224;50.904;6.038;2023-02-22T00:05:27;99683.53;;;5.89;100.00
59419;BME280;45224;50.904;6.038;2023-02-22T00:06:57;99692.94;;;5.89;100.00
59419;BME280;45224;50.904;6.038;2023-02-22T00:08:35;99683.44;;;5.83;100.00
59419;BME280;45224;50.904;6.038;2023-02-22T00:10:06;99692.19;;;5.94;100.00
59419;BME280;45224;50.904;6.038;2023-02-22T00:11:47;99685.41;;;5.96;100.00
59419;BME280;45224;50.904;6.038;2023-02-22T00:13:18;99676.84;;;5.97;100.00
59419;BME280;45224;50.904;6.038;2023-02-22T00:14:52;99689.75;;;6.00;100.00
59419;BME280;45224;50.904;6.038;2023-02-22T00:16:23;99682.97;;;6.02;100.00
59419;BME280;45224;50.904;6.038;2023-02-22T00:17:54;99683.91;;;6.08;100.00
59419;BME280;45224;50.904;6.038;2023-02-22T00:19:26;99682.06;;;6.02;100.00
59419;BME280;45224;50.904;6.038;2023-02-22T00:21:00;99681.31;;;6.06;100.00
59419;BME280;45224;50.904;6.038;2023-02-22T00:22:31;99685.66;;;6.12;100.00
59419;BME280;45224;50.904;6.038;2023-02-22T00:24:02;99682.97;;;6.04;100.00
59419;BME280;45224;50.904;6.038;2023-02-22T00:25:51;99686.09;;;5.89;100.00
59419;BME280;45224;50.904;6.038;2023-02-22T00:27:22;99687.84;;;5.90;100.00
59419;BME280;45224;50.904;6.038;2023-02-22T00:28:53;99667.41;;;5.95;100.00
59419;BME280;45224;50.904;6.038;2023-02-22T00:30:26;99676.63;;;5.85;100.00
59419;BME280;45224;50.904;6.038;2023-02-22T00:31:57;99671.63;;;5.91;100.00
59419;BME280;45224;50.904;6.038;2023-02-22T00:33:27;99677.63;;;5.93;100.00
59419;BME280;45224;50.904;6.038;2023-02-22T00:34:58;99680.09;;;5.87;100.00
59419;BME280;45224;50.904;6.038;2023-02-22T00:36:28;99677.41;;;5.81;100.00
59419;BME280;45224;50.904;6.038;2023-02-22T00:38:01;99667.94;;;5.77;100.00
59419;BME280;45224;50.904;6.038;2023-02-22T00:39:32;99674.13;;;5.88;100.00
59419;BME280;45224;50.904;6.038;2023-02-22T00:41:03;99671.56;;;5.88;100.00
59419;BME280;45224;50.904;6.038;2023-02-22T00:42:33;99670.69;;;5.88;100.00
59419;BME280;45224;50.904;6.038;2023-02-22T00:44:04;99664.38;;;5.69;100.00
59419;BME280;45224;50.904;6.038;2023-02-22T00:45:35;99673.91;;;5.76;100.00
59419;BME280;45224;50.904;6.038;2023-02-22T00:47:06;99672.19;;;5.76;100.00
59419;BME280;45224;50.904;6.038;2023-02-22T00:48:37;99668.88;;;5.82;100.00
59419;BME280;45224;50.904;6.038;2023-02-22T00:50:08;99662.94;;;5.86;100.00
59419;BME280;45224;50.904;6.038;2023-02-22T00:51:39;99663.06;;;5.92;100.00
59419;BME280;45224;50.904;6.038;2023-02-22T00:53:10;99668.94;;;5.85;100.00
59419;BME280;45224;50.904;6.038;2023-02-22T00:54:41;99667.22;;;5.85;100.00
59419;BME280;45224;50.904;6.038;2023-02-22T00:56:11;99662.88;;;5.80;100.00
59419;BME280;45224;50.904;6.038;2023-02-22T00:57:42;99662.06;;;5.84;100.00
59419;BME280;45224;50.904;6.038;2023-02-22T00:59:13;99669.72;;;5.81;100.00
59419;BME280;45224;50.904;6.038;2023-02-22T01:00:44;99664.69;;;5.87;100.00
59419;BME280;45224;50.904;6.038;2023-02-22T01:02:15;99661.34;;;5.91;100.00
59419;BME280;45224;50.904;6.038;2023-02-22T01:03:46;99666.59;;;5.97;100.00
59419;BME280;45224;50.904;6.038;2023-02-22T01:05:20;99653.53;;;5.83;100.00
59419;BME280;45224;50.904;6.038;2023-02-22T01:06:51;99654.97;;;5.69;100.00
59419;BME280;45224;50.904;6.038;2023-02-22T01:08:23;99657.69;;;5.77;100.00
59419;BME280;45224;50.904;6.038;2023-02-22T01:09:54;99652.25;;;5.60;100.00
59419;BME280;45224;50.904;6.038;2023-02-22T01:11:24;99647.09;;;5.58;100.00
59419;BME280;45224;50.904;6.038;2023-02-22T01:12:56;99643.47;;;5.47;100.00
59419;BME280;45224;50.904;6.038;2023-02-22T01:14:27;99653.19;;;5.65;100.00
59419;BME280;45224;50.904;6.038;2023-02-22T01:15:58;99651.56;;;5.69;100.00
59419;BME280;45224;50.904;6.038;2023-02-22T01:17:29;99648.59;;;5.47;100.00
59419;BME280;45224;50.904;6.038;2023-02-22T01:19:00;99647.50;;;5.34;100.00
59419;BME280;45224;50.904;6.038;2023-02-22T01:20:31;99644.97;;;5.36;100.00
59419;BME280;45224;50.904;6.038;2023-02-22T01:22:01;99640.56;;;5.28;100.00
59419;BME280;45224;50.904;6.038;2023-02-22T01:23:34;99652.59;;;5.33;100.00
59419;BME280;45224;50.904;6.038;2023-02-22T01:25:05;99652.50;;;5.28;100.00
59419;BME280;45224;50.904;6.038;2023-02-22T01:26:36;99648.44;;;5.38;100.00
59419;BME280;45224;50.904;6.038;2023-02-22T01:28:07;99643.31;;;5.39;100.00
59419;BME280;45224;50.904;6.038;2023-02-22T01:29:37;99652.88;;;5.46;100.00
59419;BME280;45224;50.904;6.038;2023-02-22T01:31:10;99648.72;;;5.53;100.00
59419;BME280;45224;50.904;6.038;2023-02-22T01:32:42;99646.94;;;5.49;100.00
59419;BME280;45224;50.904;6.038;2023-02-22T01:34:12;99647.91;;;5.56;100.00
59419;BME280;45224;50.904;6.038;2023-02-22T01:35:45;99650.50;;;5.57;100.00
59419;BME280;45224;50.904;6.038;2023-02-22T01:37:16;99652.31;;;5.64;100.00
59419;BME280;45224;50.904;6.038;2023-02-22T01:38:47;99654.94;;;5.67;100.00
59419;BME280;45224;50.904;6.038;2023-02-22T01:40:23;99641.31;;;5.70;100.00
59419;BME280;45224;50.904;6.038;2023-02-22T01:41:54;99643.94;;;5.75;100.00
59419;BME280;45224;50.904;6.038;2023-02-22T01:43:27;99636.19;;;5.70;100.00
59419;BME280;45224;50.904;6.038;2023-02-22T01:47:02;99635.88;;;5.53;100.00
59419;BME280;45224;50.904;6.038;2023-02-22T01:48:46;99639.97;;;5.42;100.00
59419;BME280;45224;50.904;6.038;2023-02-22T01:50:18;99639.00;;;5.37;100.00
59419;BME280;45224;50.904;6.038;2023-02-22T01:51:53;99634.81;;;5.42;100.00
59419;BME280;45224;50.904;6.038;2023-02-22T01:53:34;99638.06;;;5.32;100.00
59419;BME280;45224;50.904;6.038;2023-02-22T01:55:07;99639.03;;;5.38;100.00
59419;BME280;45224;50.904;6.038;2023-02-22T01:56:39;99635.72;;;5.44;100.00
59419;BME280;45224;50.904;6.038;2023-02-22T01:58:12;99637.44;;;5.43;100.00
59419;BME280;45224;50.904;6.038;2023-02-22T01:59:49;99635.59;;;5.36;100.00
59419;BME280;45224;50.904;6.038;2023-02-22T02:01:22;99634.81;;;5.42;100.00
59419;BME280;45224;50.904;6.038;2023-02-22T02:02:58;99631.50;;;5.46;100.00
59419;BME280;45224;50.904;6.038;2023-02-22T02:04:32;99627.94;;;5.38;100.00
59419;BME280;45224;50.904;6.038;2023-02-22T02:06:07;99624.56;;;5.42;100.00
59419;BME280;45224;50.904;6.038;2023-02-22T02:07:41;99629.44;;;5.28;100.00
59419;BME280;45224;50.904;6.038;2023-02-22T02:09:32;99626.91;;;5.29;100.00
59419;BME280;45224;50.904;6.038;2023-02-22T02:11:07;99611.88;;;5.02;100.00
59419;BME280;45224;50.904;6.038;2023-02-22T02:12:42;99622.44;;;5.19;100.00
59419;BME280;45224;50.904;6.038;2023-02-22T02:14:13;99619.88;;;5.19;100.00
59419;BME280;45224;50.904;6.038;2023-02-22T02:15:44;99625.28;;;5.33;100.00
59419;BME280;45224;50.904;6.038;2023-02-22T02:17:17;99631.25;;;5.34;100.00
59419;BME280;45224;50.904;6.038;2023-02-22T02:18:49;99619.28;;;5.33;100.00
59419;BME280;45224;50.904;6.038;2023-02-22T02:20:31;99629.66;;;5.39;100.00
59419;BME280;45224;50.904;6.038;2023-02-22T02:22:28;99624.50;;;5.39;100.00
59419;BME280;45224;50.904;6.038;2023-02-22T02:26:08;99630.44;;;5.35;100.00
59419;BME280;45224;50.904;6.038;2023-02-22T02:35:05;99632.16;;;5.36;100.00
59419;BME280;45224;50.904;6.038;2023-02-22T02:36:58;99628.75;;;5.37;100.00
59419;BME280;45224;50.904;6.038;2023-02-22T02:41:59;99628.72;;;5.35;100.00
59419;BME280;45224;50.904;6.038;2023-02-22T02:45:15;99625.84;;;5.18;100.00
59419;BME280;45224;50.904;6.038;2023-02-22T02:46:51;99631.91;;;5.22;100.00
59419;BME280;45224;50.904;6.038;2023-02-22T02:48:27;99637.88;;;5.22;100.00
59419;BME280;45224;50.904;6.038;2023-02-22T02:50:06;99630.22;;;5.24;100.00
59419;BME280;45224;50.904;6.038;2023-02-22T02:51:41;99636.28;;;5.27;100.00
59419;BME280;45224;50.904;6.038;2023-02-22T02:53:18;99627.69;;;5.25;100.00
59419;BME280;45224;50.904;6.038;2023-02-22T02:54:50;99625.13;;;5.25;100.00
59419;BME280;45224;50.904;6.038;2023-02-22T02:56:21;99627.50;;;5.16;100.00
59419;BME280;45224;50.904;6.038;2023-02-22T02:57:52;99623.28;;;5.18;100.00
59419;BME280;45224;50.904;6.038;2023-02-22T02:59:31;99624.06;;;5.14;100.00
59419;BME280;45224;50.904;6.038;2023-02-22T03:01:02;99617.25;;;5.16;100.00
59419;BME280;45224;50.904;6.038;2023-02-22T03:07:37;99607.72;;;5.07;100.00
59419;BME280;45224;50.904;6.038;2023-02-22T03:11:01;99610.94;;;4.99;100.00
59419;BME280;45224;50.904;6.038;2023-02-22T03:12:44;99608.34;;;4.97;100.00
59419;BME280;45224;50.904;6.038;2023-02-22T03:18:08;99606.59;;;4.94;100.00
59419;BME280;45224;50.904;6.038;2023-02-22T03:20:03;99594.56;;;4.90;100.00
59419;BME280;45224;50.904;6.038;2023-02-22T03:23:36;99599.69;;;4.90;100.00
59419;BME280;45224;50.904;6.038;2023-02-22T03:25:45;99599.69;;;4.90;100.00
59419;BME280;45224;50.904;6.038;2023-02-22T03:27:31;99584.25;;;4.87;100.00
59419;BME280;45224;50.904;6.038;2023-02-22T03:29:07;99598.78;;;4.88;100.00
59419;BME280;45224;50.904;6.038;2023-02-22T03:30:52;99597.06;;;4.87;100.00
59419;BME280;45224;50.904;6.038;2023-02-22T03:32:28;99597.78;;;4.80;100.00
59419;BME280;45224;50.904;6.038;2023-02-22T03:34:04;99578.97;;;4.78;100.00
59419;BME280;45224;50.904;6.038;2023-02-22T03:35:44;99585.84;;;4.82;100.00
59419;BME280;45224;50.904;6.038;2023-02-22T03:37:20;99580.59;;;4.76;100.00
59419;BME280;45224;50.904;6.038;2023-02-22T03:38:57;99587.47;;;4.77;100.00
59419;BME280;45224;50.904;6.038;2023-02-22T03:40:35;99577.16;;;4.74;100.00
59419;BME280;45224;50.904;6.038;2023-02-22T03:42:11;99590.78;;;4.73;100.00
59419;BME280;45224;50.904;6.038;2023-02-22T03:43:49;99590.72;;;4.70;100.00
59419;BME280;45224;50.904;6.038;2023-02-22T03:45:23;99576.16;;;4.66;100.00
59419;BME280;45224;50.904;6.038;2023-02-22T03:47:00;99579.63;;;4.69;100.00
59419;BME280;45224;50.904;6.038;2023-02-22T03:50:27;99559.91;;;4.64;100.00
59419;BME280;45224;50.904;6.038;2023-02-22T03:52:00;99572.72;;;4.65;100.00
59419;BME280;45224;50.904;6.038;2023-02-22T03:53:33;99573.50;;;4.63;100.00
59419;BME280;45224;50.904;6.038;2023-02-22T03:55:09;99565.72;;;4.58;100.00
59419;BME280;45224;50.904;6.038;2023-02-22T03:56:51;99570.00;;;4.57;100.00
59419;BME280;45224;50.904;6.038;2023-02-22T03:58:29;99559.63;;;4.51;100.00
59419;BME280;45224;50.904;6.038;2023-02-22T04:00:05;99561.59;;;4.65;100.00
59419;BME280;45224;50.904;6.038;2023-02-22T04:01:43;99563.22;;;4.60;100.00
59419;BME280;45224;50.904;6.038;2023-02-22T04:03:13;99570.00;;;4.57;100.00
59419;BME280;45224;50.904;6.038;2023-02-22T04:04:47;99564.81;;;4.54;100.00
59419;BME280;45224;50.904;6.038;2023-02-22T04:06:18;99563.03;;;4.52;100.00
59419;BME280;45224;50.904;6.038;2023-02-22T04:07:51;99553.56;;;4.46;100.00
59419;BME280;45224;50.904;6.038;2023-02-22T04:09:22;99550.09;;;4.44;100.00
59419;BME280;45224;50.904;6.038;2023-02-22T04:10:53;99560.34;;;4.44;100.00
59419;BME280;45224;50.904;6.038;2023-02-22T04:12:27;99557.78;;;4.44;100.00
59419;BME280;45224;50.904;6.038;2023-02-22T04:14:05;99551.69;;;4.39;100.00
59419;BME280;45224;50.904;6.038;2023-02-22T04:15:36;99550.94;;;4.43;100.00
59419;BME280;45224;50.904;6.038;2023-02-22T04:17:09;99554.25;;;4.39;100.00
59419;BME280;45224;50.904;6.038;2023-02-22T04:24:18;99541.22;;;4.27;100.00
59419;BME280;45224;50.904;6.038;2023-02-22T04:25:49;99530.78;;;4.19;100.00
59419;BME280;45224;50.904;6.038;2023-02-22T04:27:20;99533.25;;;4.14;100.00
59419;BME280;45224;50.904;6.038;2023-02-22T04:28:51;99537.47;;;4.12;100.00
59419;BME280;45224;50.904;6.038;2023-02-22T04:30:25;99529.72;;;4.09;100.00
59419;BME280;45224;50.904;6.038;2023-02-22T04:31:59;99516.72;;;4.00;100.00
59419;BME280;45224;50.904;6.038;2023-02-22T04:33:29;99535.63;;;4.07;100.00
59419;BME280;45224;50.904;6.038;2023-02-22T04:35:00;99526.16;;;4.01;100.00
59419;BME280;45224;50.904;6.038;2023-02-22T04:36:33;99531.34;;;4.04;100.00
59419;BME280;45224;50.904;6.038;2023-02-22T04:38:04;99534.91;;;4.12;100.00
59419;BME280;45224;50.904;6.038;2023-02-22T04:39:35;99525.47;;;4.10;100.00
59419;BME280;45224;50.904;6.038;2023-02-22T04:41:05;99521.22;;;4.09;100.00
59419;BME280;45224;50.904;6.038;2023-02-22T04:42:37;99522.06;;;4.09;100.00
59419;BME280;45224;50.904;6.038;2023-02-22T04:44:07;99524.47;;;4.03;100.00
59419;BME280;45224;50.904;6.038;2023-02-22T04:45:38;99523.63;;;4.02;100.00
59419;BME280;45224;50.904;6.038;2023-02-22T04:47:09;99522.69;;;3.99;100.00
59419;BME280;45224;50.904;6.038;2023-02-22T04:48:40;99509.00;;;3.97;100.00
59419;BME280;45224;50.904;6.038;2023-02-22T04:50:11;99529.59;;;4.03;100.00
59419;BME280;45224;50.904;6.038;2023-02-22T04:51:42;99522.69;;;3.99;100.00
59419;BME280;45224;50.904;6.038;2023-02-22T04:53:15;99524.34;;;3.97;100.00
59419;BME280;45224;50.904;6.038;2023-02-22T04:54:46;99514.03;;;3.94;100.00
59419;BME280;45224;50.904;6.038;2023-02-22T04:56:17;99516.66;;;3.97;100.00
59419;BME280;45224;50.904;6.038;2023-02-22T04:57:48;99518.41;;;3.98;100.00
59419;BME280;45224;50.904;6.038;2023-02-22T04:59:19;99519.19;;;3.95;100.00
59419;BME280;45224;50.904;6.038;2023-02-22T05:00:56;99514.09;;;3.97;100.00
59419;BME280;45224;50.904;6.038;2023-02-22T05:02:27;99519.22;;;3.97;100.00
59419;BME280;45224;50.904;6.038;2023-02-22T05:03:58;99502.88;;;3.90;100.00
59419;BME280;45224;50.904;6.038;2023-02-22T05:05:29;99512.25;;;3.90;100.00
59419;BME280;45224;50.904;6.038;2023-02-22T05:06:59;99507.06;;;3.87;100.00
59419;BME280;45224;50.904;6.038;2023-02-22T05:08:30;99513.97;;;3.91;100.00
59419;BME280;45224;50.904;6.038;2023-02-22T05:10:00;99512.25;;;3.90;100.00
59419;BME280;45224;50.904;6.038;2023-02-22T05:11:32;99502.03;;;3.90;100.00
59419;BME280;45224;50.904;6.038;2023-02-22T05:13:03;99496.03;;;3.89;100.00
59419;BME280;45224;50.904;6.038;2023-02-22T05:14:35;99496.13;;;3.94;100.00
59419;BME280;45224;50.904;6.038;2023-02-22T05:16:06;99492.81;;;3.98;100.00
59419;BME280;45224;50.904;6.038;2023-02-22T05:17:36;99490.19;;;3.95;100.00
59419;BME280;45224;50.904;6.038;2023-02-22T05:19:07;99483.38;;;3.95;100.00
59419;BME280;45224;50.904;6.038;2023-02-22T05:20:37;99485.22;;;4.01;100.00
59419;BME280;45224;50.904;6.038;2023-02-22T05:22:08;99488.59;;;4.00;100.00
59419;BME280;45224;50.904;6.038;2023-02-22T05:23:38;99490.34;;;4.01;100.00
59419;BME280;45224;50.904;6.038;2023-02-22T05:25:09;99483.44;;;3.98;100.00
59419;BME280;45224;50.904;6.038;2023-02-22T05:26:41;99485.88;;;3.92;100.00
59419;BME280;45224;50.904;6.038;2023-02-22T05:28:14;99489.34;;;3.94;100.00
59419;BME280;45224;50.904;6.038;2023-02-22T05:29:45;99475.69;;;3.95;100.00
59419;BME280;45224;50.904;6.038;2023-02-22T05:31:15;99476.59;;;3.96;100.00
59419;BME280;45224;50.904;6.038;2023-02-22T05:32:46;99473.16;;;3.95;100.00
59419;BME280;45224;50.904;6.038;2023-02-22T05:34:17;99474.84;;;3.95;100.00
59419;BME280;45224;50.904;6.038;2023-02-22T05:35:47;99473.09;;;3.94;100.00
59419;BME280;45224;50.904;6.038;2023-02-22T05:37:18;99471.41;;;3.93;100.00
59419;BME280;45224;50.904;6.038;2023-02-22T05:38:48;99459.38;;;3.89;100.00
59419;BME280;45224;50.904;6.038;2023-02-22T05:40:21;99470.47;;;3.91;100.00
59419;BME280;45224;50.904;6.038;2023-02-22T05:41:52;99473.03;;;3.91;100.00
59419;BME280;45224;50.904;6.038;2023-02-22T05:43:23;99469.66;;;3.92;100.00
59419;BME280;45224;50.904;6.038;2023-02-22T05:44:53;99467.06;;;3.90;100.00
59419;BME280;45224;50.904;6.038;2023-02-22T05:46:24;99469.66;;;3.92;100.00
59419;BME280;45224;50.904;6.038;2023-02-22T05:47:55;99461.09;;;3.90;100.00
59419;BME280;45224;50.904;6.038;2023-02-22T05:49:26;99462.63;;;3.81;100.00
59419;BME280;45224;50.904;6.038;2023-02-22T05:50:57;99460.16;;;3.84;100.00
59419;BME280;45224;50.904;6.038;2023-02-22T05:52:27;99458.34;;;3.80;100.00
59419;BME280;45224;50.904;6.038;2023-02-22T05:53:58;99454.09;;;3.82;100.00
59419;BME280;45224;50.904;6.038;2023-02-22T05:55:28;99455.91;;;3.87;100.00
59419;BME280;45224;50.904;6.038;2023-02-22T05:56:59;99461.78;;;3.82;100.00
59419;BME280;45224;50.904;6.038;2023-02-22T05:58:30;99454.97;;;3.81;100.00
59419;BME280;45224;50.904;6.038;2023-02-22T06:00:03;99448.84;;;3.75;100.00
59419;BME280;45224;50.904;6.038;2023-02-22T06:01:43;99456.50;;;3.73;100.00
59419;BME280;45224;50.904;6.038;2023-02-22T06:03:13;99443.63;;;3.70;100.00
59419;BME280;45224;50.904;6.038;2023-02-22T06:04:46;99450.53;;;3.74;100.00
59419;BME280;45224;50.904;6.038;2023-02-22T06:06:17;99440.13;;;3.66;100.00
59419;BME280;45224;50.904;6.038;2023-02-22T06:07:49;99447.78;;;3.65;100.00
59419;BME280;45224;50.904;6.038;2023-02-22T06:09:20;99439.19;;;3.63;100.00
59419;BME280;45224;50.904;6.038;2023-02-22T06:10:51;99440.16;;;3.68;100.00
59419;BME280;45224;50.904;6.038;2023-02-22T06:12:21;99440.22;;;3.71;100.00
59419;BME280;45224;50.904;6.038;2023-02-22T06:13:52;99438.38;;;3.64;100.00
59419;BME280;45224;50.904;6.038;2023-02-22T06:15:24;99429.19;;;3.72;100.00
59419;BME280;45224;50.904;6.038;2023-02-22T06:16:56;99436.78;;;3.69;100.00
59419;BME280;45224;50.904;6.038;2023-02-22T06:18:26;99430.72;;;3.64;100.00
59419;BME280;45224;50.904;6.038;2023-02-22T06:19:59;99429.22;;;3.74;100.00
59419;BME280;45224;50.904;6.038;2023-02-22T06:21:30;99432.72;;;3.79;100.00
59419;BME280;45224;50.904;6.038;2023-02-22T06:23:00;99427.34;;;3.65;100.00
59419;BME280;45224;50.904;6.038;2023-02-22T06:24:31;99433.34;;;3.67;100.00
59419;BME280;45224;50.904;6.038;2023-02-22T06:26:02;99433.44;;;3.72;100.00
59419;BME280;45224;50.904;6.038;2023-02-22T06:27:33;99425.69;;;3.69;100.00
59419;BME280;45224;50.904;6.038;2023-02-22T06:29:04;99434.28;;;3.72;100.00
59419;BME280;45224;50.904;6.038;2023-02-22T06:30:35;99427.38;;;3.68;100.00
59419;BME280;45224;50.904;6.038;2023-02-22T06:32:05;99429.97;;;3.70;100.00
59419;BME280;45224;50.904;6.038;2023-02-22T06:33:36;99429.94;;;3.68;100.00
59419;BME280;45224;50.904;6.038;2023-02-22T06:35:06;99431.75;;;3.72;100.00
59419;BME280;45224;50.904;6.038;2023-02-22T06:36:38;99429.09;;;3.69;100.00
59419;BME280;45224;50.904;6.038;2023-02-22T06:38:08;99433.34;;;3.67;100.00
59419;BME280;45224;50.904;6.038;2023-02-22T06:39:38;99432.59;;;3.73;100.00
59419;BME280;45224;50.904;6.038;2023-02-22T06:41:09;99430.13;;;3.77;100.00
59419;BME280;45224;50.904;6.038;2023-02-22T06:42:40;99439.66;;;3.83;100.00
59419;BME280;45224;50.904;6.038;2023-02-22T06:44:12;99426.97;;;3.88;100.00
59419;BME280;45224;50.904;6.038;2023-02-22T06:45:42;99421.84;;;3.88;100.00
59419;BME280;45224;50.904;6.038;2023-02-22T06:47:13;99423.63;;;3.92;100.00
59419;BME280;45224;50.904;6.038;2023-02-22T06:48:43;99428.91;;;3.99;100.00
59419;BME280;45224;50.904;6.038;2023-02-22T06:50:20;99425.44;;;3.96;100.00
59419;BME280;45224;50.904;6.038;2023-02-22T06:51:52;99425.50;;;3.99;100.00
59419;BME280;45224;50.904;6.038;2023-02-22T06:53:23;99425.53;;;4.02;100.00
59419;BME280;45224;50.904;6.038;2023-02-22T06:54:53;99417.03;;;4.03;100.00
59419;BME280;45224;50.904;6.038;2023-02-22T06:56:24;99422.97;;;4.00;100.00
59419;BME280;45224;50.904;6.038;2023-02-22T06:57:55;99421.41;;;4.07;100.00
59419;BME280;45224;50.904;6.038;2023-02-22T06:59:25;99419.72;;;4.09;100.00
59419;BME280;45224;50.904;6.038;2023-02-22T07:00:57;99423.94;;;4.07;100.00
59419;BME280;45224;50.904;6.038;2023-02-22T07:02:27;99413.78;;;4.10;100.00
59419;BME280;45224;50.904;6.038;2023-02-22T07:03:58;99425.09;;;4.22;100.00
59419;BME280;45224;50.904;6.038;2023-02-22T07:05:28;99425.25;;;4.31;100.00
59419;BME280;45224;50.904;6.038;2023-02-22T07:06:59;99419.28;;;4.30;100.00
59419;BME280;45224;50.904;6.038;2023-02-22T07:08:29;99421.88;;;4.32;100.00
59419;BME280;45224;50.904;6.038;2023-02-22T07:10:00;99428.72;;;4.33;100.00
59419;BME280;45224;50.904;6.038;2023-02-22T07:11:31;99422.81;;;4.37;100.00
59419;BME280;45224;50.904;6.038;2023-02-22T07:13:03;99417.69;;;4.37;100.00
59419;BME280;45224;50.904;6.038;2023-02-22T07:14:34;99425.53;;;4.45;100.00
59419;BME280;45224;50.904;6.038;2023-02-22T07:16:04;99424.69;;;4.47;100.00
59419;BME280;45224;50.904;6.038;2023-02-22T07:17:35;99424.75;;;4.50;100.00
59419;BME280;45224;50.904;6.038;2023-02-22T07:19:05;99419.66;;;4.52;100.00
59419;BME280;45224;50.904;6.038;2023-02-22T07:20:36;99424.84;;;4.55;100.00
59419;BME280;45224;50.904;6.038;2023-02-22T07:22:07;99419.81;;;4.60;100.00
59419;BME280;45224;50.904;6.038;2023-02-22T07:23:37;99424.16;;;4.62;100.00
59419;BME280;45224;50.904;6.038;2023-02-22T07:25:09;99426.75;;;4.65;100.00
59419;BME280;45224;50.904;6.038;2023-02-22T07:26:41;99426.00;;;4.71;100.00
59419;BME280;45224;50.904;6.038;2023-02-22T07:28:12;99431.19;;;4.74;100.00
59419;BME280;45224;50.904;6.038;2023-02-22T07:29:43;99421.81;;;4.76;100.00
59419;BME280;45224;50.904;6.038;2023-02-22T07:31:13;99424.47;;;4.82;100.00
59419;BME280;45224;50.904;6.038;2023-02-22T07:32:45;99428.78;;;4.83;100.00
59419;BME280;45224;50.904;6.038;2023-02-22T07:34:16;99421.19;;;4.88;100.00
59419;BME280;45224;50.904;6.038;2023-02-22T07:35:48;99422.16;;;4.94;100.00
59419;BME280;45224;50.904;6.038;2023-02-22T07:37:19;99420.41;;;4.93;100.00
59419;BME280;45224;50.904;6.038;2023-02-22T07:38:50;99426.53;;;5.03;100.00
59419;BME280;45224;50.904;6.038;2023-02-22T07:40:21;99424.00;;;5.05;100.00
59419;BME280;45224;50.904;6.038;2023-02-22T07:41:52;99428.38;;;5.09;100.00
59419;BME280;45224;50.904;6.038;2023-02-22T07:43:27;99419.03;;;5.14;100.00
59419;BME280;45224;50.904;6.038;2023-02-22T07:44:58;99420.78;;;5.18;100.00
59419;BME280;45224;50.904;6.038;2023-02-22T07:46:29;99422.63;;;5.25;100.00
59419;BME280;45224;50.904;6.038;2023-02-22T07:48:01;99418.38;;;5.26;99.08
59419;BME280;45224;50.904;6.038;2023-02-22T07:49:31;99423.59;;;5.32;99.04
59419;BME280;45224;50.904;6.038;2023-02-22T07:51:02;99424.53;;;5.39;98.64
59419;BME280;45224;50.904;6.038;2023-02-22T07:52:33;99418.56;;;5.38;98.05
59419;BME280;45224;50.904;6.038;2023-02-22T07:54:03;99415.22;;;5.45;97.94
59419;BME280;45224;50.904;6.038;2023-02-22T07:55:34;99420.50;;;5.55;97.71
59419;BME280;45224;50.904;6.038;2023-02-22T07:57:04;99409.41;;;5.54;97.49
59419;BME280;45224;50.904;6.038;2023-02-22T07:58:35;99428.34;;;5.65;97.50
59419;BME280;45224;50.904;6.038;2023-02-22T08:00:06;99422.44;;;5.71;97.74
59419;BME280;45224;50.904;6.038;2023-02-22T08:01:42;99420.81;;;5.78;97.45
59419;BME280;45224;50.904;6.038;2023-02-22T08:03:14;99414.00;;;5.78;97.59
59419;BME280;45224;50.904;6.038;2023-02-22T08:04:45;99414.06;;;5.84;96.44
59419;BME280;45224;50.904;6.038;2023-02-22T08:06:16;99412.41;;;5.88;95.73
59419;BME280;45224;50.904;6.038;2023-02-22T08:07:47;99406.50;;;5.95;95.76
59419;BME280;45224;50.904;6.038;2023-02-22T08:09:17;99410.88;;;5.99;94.57
59419;BME280;45224;50.904;6.038;2023-02-22T08:10:49;99412.63;;;6.05;94.48
59419;BME280;45224;50.904;6.038;2023-02-22T08:12:19;99413.53;;;6.09;94.52
59419;BME280;45224;50.904;6.038;2023-02-22T08:13:50;99400.69;;;6.09;94.55
59419;BME280;45224;50.904;6.038;2023-02-22T08:15:23;99415.44;;;6.22;93.91
59419;BME280;45224;50.904;6.038;2023-02-22T08:16:54;99413.72;;;6.24;93.04
59419;BME280;45224;50.904;6.038;2023-02-22T08:18:25;99411.28;;;6.33;93.03
59419;BME280;45224;50.904;6.038;2023-02-22T08:19:55;99404.47;;;6.37;92.45
59419;BME280;45224;50.904;6.038;2023-02-22T08:21:26;99413.13;;;6.48;93.03
59419;BME280;45224;50.904;6.038;2023-02-22T08:22:57;99405.50;;;6.56;92.40
59419;BME280;45224;50.904;6.038;2023-02-22T08:24:27;99409.84;;;6.62;92.34
59419;BME280;45224;50.904;6.038;2023-02-22T08:26:08;99404.78;;;6.69;93.01
59419;BME280;45224;50.904;6.038;2023-02-22T08:27:39;99410.00;;;6.79;92.96
59419;BME280;45224;50.904;6.038;2023-02-22T08:29:10;99407.50;;;6.85;92.78
59419;BME280;45224;50.904;6.038;2023-02-22T08:30:41;99403.25;;;6.90;92.03
59419;BME280;45224;50.904;6.038;2023-02-22T08:32:12;99409.31;;;6.98;92.32
59419;BME280;45224;50.904;6.038;2023-02-22T08:33:47;99399.06;;;7.01;92.96
59419;BME280;45224;50.904;6.038;2023-02-22T08:35:19;99403.44;;;7.15;92.66
59419;BME280;45224;50.904;6.038;2023-02-22T08:36:50;99400.94;;;7.21;92.43
59419;BME280;45224;50.904;6.038;2023-02-22T08:38:26;99405.25;;;7.28;92.42
59419;BME280;45224;50.904;6.038;2023-02-22T08:39:57;99405.31;;;7.34;91.76
59419;BME280;45224;50.904;6.038;2023-02-22T08:41:28;99401.03;;;7.39;91.48
59419;BME280;45224;50.904;6.038;2023-02-22T08:42:59;99407.94;;;7.43;91.18
59419;BME280;45224;50.904;6.038;2023-02-22T08:44:30;99403.69;;;7.48;91.89
59419;BME280;45224;50.904;6.038;2023-02-22T08:46:01;99409.75;;;7.58;91.33
59419;BME280;45224;50.904;6.038;2023-02-22T08:47:31;99394.34;;;7.63;90.76
59419;BME280;45224;50.904;6.038;2023-02-22T08:49:02;99408.13;;;7.74;91.15